< < Back
Terminal Aerodrome Forecast


Current Version              Previous Versions:   1  2  3  4  5  6  7  8  9  

Terminal Aerodrome Forecast

593
FTUS44 KBMX 010520
TAFBHM
TAF
KBHM 010520Z 0106/0206 23005KT P6SM BKN250
     FM011100 23002KT 6SM BR BKN019
     FM011300 24004KT P6SM BKN250
     FM011800 26010KT P6SM VCTS SCT050CB BKN250
     FM020000 24005KT P6SM OVC250=

Latest METAR

697
SAUS70 KWBC 010600 RRI
MTRBHM
METAR KBHM 010553Z 20003KT 10SM BKN150 23/21 A3006 RMK AO2 SLP169
T02330206 10267 20228 402830206 58003


USA.gov is the U.S. government's official web portal to all federal, state and local government web resources and services.